createdAt,value
2018-04-23T00:00:16.406Z,59.5
2018-04-23T00:01:16.459Z,59.0
2018-04-23T00:02:16.719Z,58.6
2018-04-23T00:03:16.983Z,58.8
2018-04-23T00:04:17.248Z,58.1
2018-04-23T00:05:16.523Z,58.2
2018-04-23T00:06:16.783Z,58.3
2018-04-23T00:07:17.240Z,57.9
2018-04-23T00:08:16.517Z,58.1
2018-04-23T00:09:16.776Z,57.9
2018-04-23T00:10:17.095Z,58.0
2018-04-23T00:11:17.072Z,58.0
2018-04-23T00:12:16.334Z,57.4
2018-04-23T00:13:16.599Z,57.8
2018-04-23T00:14:16.855Z,57.5
2018-04-23T00:15:17.112Z,57.6
2018-04-23T00:16:16.380Z,57.8
2018-04-23T00:17:16.645Z,57.9
2018-04-23T00:18:16.908Z,58.5
2018-04-23T00:19:17.174Z,58.2
2018-04-23T00:20:16.438Z,58.5
2018-04-23T00:21:16.485Z,58.6
2018-04-23T00:22:16.756Z,58.6
2018-04-23T00:23:17.012Z,58.5
2018-04-23T00:24:16.292Z,58.5
2018-04-23T00:25:16.551Z,58.5
2018-04-23T00:26:16.812Z,58.5
2018-04-23T00:27:17.102Z,59.1
2018-04-23T00:28:16.359Z,58.1
2018-04-23T00:29:16.626Z,58.1
2018-04-23T00:30:16.897Z,58.0
2018-04-23T00:31:16.929Z,58.1
2018-04-23T00:32:17.192Z,58.2
2018-04-23T00:33:16.456Z,58.2
2018-04-23T00:34:16.715Z,58.4
2018-04-23T00:35:16.988Z,58.1
2018-04-23T00:36:17.248Z,58.2
2018-04-23T00:37:16.531Z,58.2
2018-04-23T00:38:17.333Z,58.4
2018-04-23T00:39:16.588Z,58.6
2018-04-23T00:40:16.857Z,58.8
2018-04-23T00:41:16.886Z,58.7
2018-04-23T00:42:17.155Z,58.6
2018-04-23T00:43:16.413Z,58.8
2018-04-23T00:44:16.677Z,58.1
2018-04-23T00:45:16.943Z,58.1
2018-04-23T00:46:17.209Z,58.6
2018-04-23T00:47:16.474Z,58.6
2018-04-23T00:48:16.738Z,59.0
2018-04-23T00:49:17.003Z,59.7
2018-04-23T00:50:16.268Z,60.0
2018-04-23T00:51:16.323Z,60.7
2018-04-23T00:52:16.584Z,60.7
2018-04-23T00:53:16.848Z,60.8
2018-04-23T00:54:17.124Z,60.6
2018-04-23T00:55:16.380Z,61.0
2018-04-23T00:56:16.643Z,61.1
2018-04-23T00:57:16.908Z,61.0
2018-04-23T00:58:17.197Z,61.7
2018-04-23T00:59:16.460Z,61.6
2018-04-23T01:00:16.741Z,61.9
2018-04-23T01:01:16.764Z,61.9
2018-04-23T01:02:17.026Z,61.2
2018-04-23T01:03:16.295Z,61.4
2018-04-23T01:04:16.569Z,60.7
2018-04-23T01:05:16.841Z,60.6
2018-04-23T01:06:17.154Z,60.4
2018-04-23T01:07:16.415Z,60.8
2018-04-23T01:08:16.678Z,60.1
2018-04-23T01:09:16.949Z,60.3
2018-04-23T01:10:17.222Z,60.6
2018-04-23T01:11:16.269Z,60.5
2018-04-23T01:12:16.535Z,60.6
2018-04-23T01:13:16.802Z,60.9
2018-04-23T01:14:17.378Z,61.0
2018-04-23T01:15:16.639Z,61.1
2018-04-23T01:16:16.899Z,61.1
2018-04-23T01:17:17.160Z,61.7
2018-04-23T01:18:16.416Z,61.6
2018-04-23T01:19:16.685Z,61.6
2018-04-23T01:20:16.956Z,61.3
2018-04-23T01:21:16.988Z,61.0
2018-04-23T01:22:17.255Z,61.6
2018-04-23T01:23:16.513Z,61.5
2018-04-23T01:24:16.771Z,61.7
2018-04-23T01:25:17.034Z,61.8
2018-04-23T01:26:16.301Z,61.7
2018-04-23T01:27:16.559Z,61.8
2018-04-23T01:28:16.826Z,62.0
2018-04-23T01:29:17.102Z,61.9
2018-04-23T01:30:16.367Z,62.7
2018-04-23T01:31:16.420Z,62.7
2018-04-23T01:32:16.689Z,62.7
2018-04-23T01:33:16.944Z,63.2
2018-04-23T01:34:17.234Z,63.4
2018-04-23T01:35:16.497Z,64.5
2018-04-23T01:36:16.765Z,64.6
2018-04-23T01:37:17.028Z,65.2
2018-04-23T01:38:16.298Z,65.5
2018-04-23T01:39:16.924Z,65.5
2018-04-23T01:40:17.194Z,66.1
2018-04-23T01:41:17.234Z,65.9
2018-04-23T01:42:16.496Z,66.5
2018-04-23T01:43:16.760Z,66.8
2018-04-23T01:44:17.031Z,67.3
2018-04-23T01:45:16.293Z,67.4
2018-04-23T01:46:16.564Z,67.5
2018-04-23T01:47:16.830Z,68.2
2018-04-23T01:48:17.092Z,68.1
2018-04-23T01:49:16.351Z,68.1
2018-04-23T01:50:16.624Z,68.4
2018-04-23T01:51:16.647Z,68.8
2018-04-23T01:52:17.500Z,69.0
2018-04-23T01:53:16.757Z,69.0
2018-04-23T01:54:17.015Z,69.3
2018-04-23T01:55:16.276Z,69.5
2018-04-23T01:56:16.534Z,69.5
2018-04-23T01:57:16.800Z,70.2
2018-04-23T01:58:17.054Z,70.1
2018-04-23T01:59:16.366Z,70.1
2018-04-23T02:00:16.694Z,70.0
2018-04-23T02:01:16.752Z,70.6
2018-04-23T02:02:17.020Z,70.5
2018-04-23T02:03:16.282Z,70.5
2018-04-23T02:04:16.548Z,70.3
2018-04-23T02:05:16.817Z,70.2
2018-04-23T02:06:17.079Z,70.0
2018-04-23T02:07:16.340Z,69.6
2018-04-23T02:08:16.864Z,69.7
2018-04-23T02:09:17.132Z,69.5
2018-04-23T02:10:16.405Z,70.0
2018-04-23T02:11:16.436Z,70.8
2018-04-23T02:12:16.690Z,70.9
2018-04-23T02:13:16.957Z,71.1
2018-04-23T02:14:17.223Z,71.2
2018-04-23T02:15:16.483Z,71.0
2018-04-23T02:16:16.748Z,71.2
2018-04-23T02:17:17.025Z,71.5
2018-04-23T02:18:16.270Z,71.7
2018-04-23T02:19:16.528Z,71.9
2018-04-23T02:20:16.796Z,72.5
2018-04-23T02:21:16.853Z,72.8
2018-04-23T02:22:17.518Z,72.7
2018-04-23T02:23:16.776Z,72.7
2018-04-23T02:24:17.071Z,72.9
2018-04-23T02:25:16.344Z,72.7
2018-04-23T02:26:16.559Z,72.8
2018-04-23T02:27:16.818Z,72.8
2018-04-23T02:28:17.085Z,73.2
2018-04-23T02:29:16.357Z,73.8
2018-04-23T02:30:16.656Z,74.0
2018-04-23T02:31:16.690Z,74.0
2018-04-23T02:32:16.957Z,74.4
2018-04-23T02:33:17.216Z,74.8
2018-04-23T02:34:16.477Z,74.7
2018-04-23T02:35:16.739Z,74.6
2018-04-23T02:36:17.000Z,74.4
2018-04-23T02:37:16.263Z,74.5
2018-04-23T02:38:16.539Z,75.0
2018-04-23T02:39:16.817Z,75.0
2018-04-23T02:40:17.076Z,75.0
2018-04-23T02:41:17.149Z,75.2
2018-04-23T02:42:16.403Z,75.2
2018-04-23T02:43:16.682Z,75.3
2018-04-23T02:44:16.949Z,75.4
2018-04-23T02:45:17.210Z,75.3
2018-04-23T02:46:16.490Z,75.8
2018-04-23T02:47:16.756Z,75.8
2018-04-23T02:48:17.034Z,76.2
2018-04-23T02:49:16.312Z,76.2
2018-04-23T02:50:16.581Z,76.2
2018-04-23T02:51:16.624Z,76.3
2018-04-23T02:52:16.896Z,76.2
2018-04-23T02:53:17.178Z,76.5
2018-04-23T02:54:16.456Z,76.5
2018-04-23T02:55:16.730Z,76.8
2018-04-23T02:56:17.000Z,76.8
2018-04-23T02:57:16.262Z,76.8
2018-04-23T02:58:16.534Z,76.5
2018-04-23T02:59:16.788Z,76.2
2018-04-23T03:00:17.080Z,76.2
2018-04-23T03:01:17.109Z,76.3
2018-04-23T03:02:16.371Z,76.5
2018-04-23T03:03:16.648Z,76.7
2018-04-23T03:04:16.919Z,76.7
2018-04-23T03:05:17.198Z,76.6
2018-04-23T03:06:16.460Z,76.6
2018-04-23T03:07:16.720Z,76.6
2018-04-23T03:08:16.985Z,76.7
2018-04-23T03:09:17.254Z,76.8
2018-04-23T03:10:16.544Z,77.0
2018-04-23T03:11:16.601Z,77.5
2018-04-23T03:12:16.858Z,77.5
2018-04-23T03:13:17.115Z,77.3
2018-04-23T03:14:16.381Z,77.4
2018-04-23T03:15:16.657Z,77.3
2018-04-23T03:16:16.921Z,77.5
2018-04-23T03:17:17.184Z,77.4
2018-04-23T03:18:16.447Z,77.5
2018-04-23T03:19:16.715Z,78.0
2018-04-23T03:20:16.981Z,78.0
2018-04-23T03:21:17.031Z,78.0
2018-04-23T03:22:16.296Z,78.0
2018-04-23T03:23:16.563Z,78.0
2018-04-23T03:24:16.820Z,78.0
2018-04-23T03:25:17.082Z,78.6
2018-04-23T03:26:16.359Z,78.8
2018-04-23T03:27:16.619Z,78.7
2018-04-23T03:28:16.874Z,78.7
2018-04-23T03:29:17.134Z,78.8
2018-04-23T03:30:16.401Z,78.8
2018-04-23T03:31:16.450Z,79.5
2018-04-23T03:32:16.710Z,79.6
2018-04-23T03:33:16.970Z,79.6
2018-04-23T03:34:17.235Z,80.0
2018-04-23T03:35:16.504Z,80.2
2018-04-23T03:36:16.760Z,80.2
2018-04-23T03:37:17.024Z,80.0
2018-04-23T03:38:16.279Z,80.0
2018-04-23T03:39:16.534Z,80.0
2018-04-23T03:40:16.800Z,80.2
2018-04-23T03:41:16.831Z,80.2
2018-04-23T03:42:17.092Z,80.2
2018-04-23T03:43:16.355Z,80.7
2018-04-23T03:44:16.614Z,80.1
2018-04-23T03:45:16.873Z,80.2
2018-04-23T03:46:17.137Z,80.3
2018-04-23T03:47:16.399Z,80.2
2018-04-23T03:48:16.660Z,80.2
2018-04-23T03:49:16.920Z,80.2
2018-04-23T03:50:17.201Z,80.2
2018-04-23T03:51:17.224Z,80.2
2018-04-23T03:52:16.483Z,80.2
2018-04-23T03:53:16.737Z,80.2
2018-04-23T03:54:16.999Z,80.2
2018-04-23T03:55:16.282Z,80.3
2018-04-23T03:56:16.546Z,80.3
2018-04-23T03:57:16.804Z,80.4
2018-04-23T03:58:17.064Z,80.5
2018-04-23T03:59:16.323Z,80.5
2018-04-23T04:00:16.593Z,80.5
2018-04-23T04:01:16.637Z,80.8
2018-04-23T04:02:16.900Z,80.8
2018-04-23T04:03:17.166Z,80.8
2018-04-23T04:04:16.427Z,80.8
2018-04-23T04:05:16.696Z,81.0
2018-04-23T04:06:16.962Z,80.8
2018-04-23T04:07:17.227Z,80.8
2018-04-23T04:08:16.491Z,81.0
2018-04-23T04:09:16.840Z,81.0
2018-04-23T04:10:17.107Z,81.0
2018-04-23T04:11:17.402Z,81.6
2018-04-23T04:12:16.664Z,81.5
2018-04-23T04:13:16.928Z,81.3
2018-04-23T04:14:17.193Z,81.5
2018-04-23T04:15:16.450Z,81.3
2018-04-23T04:16:16.715Z,81.2
2018-04-23T04:17:16.985Z,81.1
2018-04-23T04:18:17.248Z,81.0
2018-04-23T04:19:16.513Z,81.1
2018-04-23T04:20:16.775Z,81.0
2018-04-23T04:21:16.819Z,81.5
2018-04-23T04:22:17.075Z,81.5
2018-04-23T04:23:16.338Z,81.5
2018-04-23T04:24:16.599Z,81.5
2018-04-23T04:25:16.864Z,81.7
2018-04-23T04:26:17.155Z,81.6
2018-04-23T04:27:16.404Z,81.7
2018-04-23T04:28:16.677Z,81.3
2018-04-23T04:29:16.947Z,81.0
2018-04-23T04:30:17.259Z,81.3
2018-04-23T04:31:16.263Z,81.5
2018-04-23T04:32:16.530Z,81.5
2018-04-23T04:33:16.789Z,81.8
2018-04-23T04:34:17.056Z,81.7
2018-04-23T04:35:16.313Z,81.5
2018-04-23T04:36:16.581Z,81.7
2018-04-23T04:37:16.833Z,81.8
2018-04-23T04:38:17.142Z,81.2
2018-04-23T04:39:16.413Z,81.2
2018-04-23T04:40:16.690Z,81.2
2018-04-23T04:41:16.730Z,81.2
2018-04-23T04:42:16.993Z,81.1
2018-04-23T04:43:17.265Z,81.2
2018-04-23T04:44:16.549Z,81.2
2018-04-23T04:45:16.835Z,81.3
2018-04-23T04:46:17.363Z,81.4
2018-04-23T04:47:16.636Z,81.5
2018-04-23T04:48:16.899Z,80.8
2018-04-23T04:49:17.172Z,81.0
2018-04-23T04:50:16.444Z,81.2
2018-04-23T04:51:16.792Z,81.4
2018-04-23T04:52:17.067Z,81.2
2018-04-23T04:53:16.329Z,81.5
2018-04-23T04:54:16.593Z,81.4
2018-04-23T04:55:16.860Z,81.4
2018-04-23T04:56:17.132Z,81.4
2018-04-23T04:57:16.396Z,81.5
2018-04-23T04:58:16.673Z,81.5
2018-04-23T04:59:16.934Z,81.4
2018-04-23T05:00:17.205Z,81.3
2018-04-23T05:01:17.240Z,81.5
2018-04-23T05:02:16.502Z,81.3
2018-04-23T05:03:16.763Z,81.5
2018-04-23T05:04:17.022Z,81.5
2018-04-23T05:05:16.276Z,81.4
2018-04-23T05:06:16.538Z,80.7
2018-04-23T05:07:16.838Z,80.7
2018-04-23T05:08:17.107Z,80.6
2018-04-23T05:09:16.369Z,80.8
2018-04-23T05:10:16.652Z,80.6
2018-04-23T05:11:16.677Z,80.5
2018-04-23T05:12:16.941Z,80.1
2018-04-23T05:13:17.206Z,79.8
2018-04-23T05:14:16.477Z,79.7
2018-04-23T05:15:16.745Z,79.8
2018-04-23T05:16:17.015Z,79.2
2018-04-23T05:17:16.290Z,79.2
2018-04-23T05:18:16.547Z,79.2
2018-04-23T05:19:16.816Z,79.0
2018-04-23T05:20:17.089Z,78.7
2018-04-23T05:21:17.133Z,78.3
2018-04-23T05:22:16.393Z,78.4
2018-04-23T05:23:16.660Z,78.0
2018-04-23T05:24:16.919Z,77.5
2018-04-23T05:25:17.176Z,77.3
2018-04-23T05:26:16.430Z,77.7
2018-04-23T05:27:16.706Z,77.0
2018-04-23T05:28:16.980Z,76.8
2018-04-23T05:29:17.246Z,76.8
2018-04-23T05:30:16.517Z,76.4
2018-04-23T05:31:16.565Z,76.2
2018-04-23T05:32:16.822Z,76.2
2018-04-23T05:33:17.093Z,76.2
2018-04-23T05:34:16.355Z,75.8
2018-04-23T05:35:16.646Z,75.9
2018-04-23T05:36:16.929Z,75.8
2018-04-23T05:37:17.192Z,75.8
2018-04-23T05:38:16.450Z,75.5
2018-04-23T05:39:16.705Z,75.1
2018-04-23T05:40:16.976Z,75.2
2018-04-23T05:41:17.005Z,75.2
2018-04-23T05:42:16.261Z,74.6
2018-04-23T05:43:16.530Z,74.2
2018-04-23T05:44:16.791Z,73.8
2018-04-23T05:45:17.053Z,73.7
2018-04-23T05:46:16.307Z,73.0
2018-04-23T05:47:16.576Z,73.0
2018-04-23T05:48:16.833Z,72.5
2018-04-23T05:49:17.094Z,72.5
2018-04-23T05:50:16.367Z,71.9
2018-04-23T05:51:16.402Z,72.1
2018-04-23T05:52:16.653Z,71.2
2018-04-23T05:53:16.930Z,71.0
2018-04-23T05:54:17.193Z,70.6
2018-04-23T05:55:16.477Z,70.7
2018-04-23T05:56:16.742Z,70.7
2018-04-23T05:57:16.996Z,70.0
2018-04-23T05:58:16.254Z,70.2
2018-04-23T05:59:16.520Z,70.1
2018-04-23T06:00:16.788Z,69.2
2018-04-23T06:01:16.839Z,69.1
2018-04-23T06:02:17.097Z,68.3
2018-04-23T06:03:16.358Z,67.6
2018-04-23T06:04:16.627Z,67.3
2018-04-23T06:05:16.956Z,67.4
2018-04-23T06:06:16.285Z,67.5
2018-04-23T06:07:16.541Z,66.8
2018-04-23T06:08:16.834Z,67.0
2018-04-23T06:09:17.096Z,67.2
2018-04-23T06:10:16.389Z,67.0
2018-04-23T06:11:16.404Z,66.6
2018-04-23T06:12:16.671Z,66.4
2018-04-23T06:13:16.931Z,66.2
2018-04-23T06:14:17.330Z,65.5
2018-04-23T06:15:16.652Z,65.5
2018-04-23T06:16:16.921Z,65.5
2018-04-23T06:17:17.184Z,65.7
2018-04-23T06:18:16.449Z,65.5
2018-04-23T06:19:16.713Z,65.1
2018-04-23T06:20:16.988Z,64.9
2018-04-23T06:21:17.017Z,65.0
2018-04-23T06:22:16.283Z,64.8
2018-04-23T06:23:16.547Z,64.5
2018-04-23T06:24:16.800Z,64.2
2018-04-23T06:25:17.060Z,64.2
2018-04-23T06:26:16.327Z,63.8
2018-04-23T06:27:16.594Z,63.5
2018-04-23T06:28:16.864Z,62.8
2018-04-23T06:29:17.136Z,62.2
2018-04-23T06:30:16.404Z,62.5
2018-04-23T06:31:16.448Z,62.2
2018-04-23T06:32:16.720Z,61.3
2018-04-23T06:33:16.978Z,61.4
2018-04-23T06:34:17.346Z,60.8
2018-04-23T06:35:16.667Z,59.9
2018-04-23T06:36:16.931Z,59.4
2018-04-23T06:37:17.195Z,59.1
2018-04-23T06:38:16.451Z,58.1
2018-04-23T06:39:16.708Z,57.0
2018-04-23T06:40:17.090Z,56.7
2018-04-23T06:41:17.023Z,56.0
2018-04-23T06:42:16.286Z,54.4
2018-04-23T06:43:16.544Z,53.6
2018-04-23T06:44:16.809Z,53.4
2018-04-23T06:45:17.082Z,50.8
2018-04-23T06:46:16.337Z,51.0
2018-04-23T06:47:16.604Z,50.6
2018-04-23T06:48:16.884Z,50.0
2018-04-23T06:49:17.150Z,50.0
2018-04-23T06:50:16.423Z,49.4
2018-04-23T06:51:16.453Z,49.6
2018-04-23T06:52:16.720Z,47.5
2018-04-23T06:53:16.993Z,47.4
2018-04-23T06:54:17.264Z,45.6
2018-04-23T06:55:16.526Z,45.1
2018-04-23T06:56:16.790Z,45.2
2018-04-23T06:57:17.067Z,44.6
2018-04-23T06:58:16.323Z,45.0
2018-04-23T06:59:16.592Z,44.6
2018-04-23T07:00:16.862Z,44.2
2018-04-23T07:01:16.909Z,42.8
2018-04-23T07:02:17.177Z,41.6
2018-04-23T07:03:16.441Z,40.8
2018-04-23T07:04:16.698Z,39.3
2018-04-23T07:05:16.958Z,39.9
2018-04-23T07:06:17.221Z,39.1
2018-04-23T07:07:16.483Z,38.5
2018-04-23T07:08:16.739Z,38.6
2018-04-23T07:09:16.999Z,38.7
2018-04-23T07:10:16.264Z,38.3
2018-04-23T07:11:16.311Z,38.3
2018-04-23T07:12:16.574Z,39.1
2018-04-23T07:13:16.835Z,39.3
2018-04-23T07:14:17.100Z,39.5
2018-04-23T07:15:16.352Z,38.9
2018-04-23T07:16:16.602Z,39.5
2018-04-23T07:17:16.854Z,39.0
2018-04-23T07:18:17.123Z,38.1
2018-04-23T07:19:16.381Z,38.3
2018-04-23T07:20:16.642Z,37.7
2018-04-23T07:21:16.701Z,37.1
2018-04-23T07:22:16.969Z,37.0
2018-04-23T07:23:17.229Z,37.0
2018-04-23T07:24:16.490Z,36.4
2018-04-23T07:25:16.746Z,36.7
2018-04-23T07:26:17.011Z,36.1
2018-04-23T07:27:16.279Z,35.8
2018-04-23T07:28:16.535Z,35.5
2018-04-23T07:29:16.832Z,36.3
2018-04-23T07:30:17.113Z,36.1
2018-04-23T07:31:17.144Z,36.1
2018-04-23T07:32:16.407Z,36.4
2018-04-23T07:33:16.677Z,35.9
2018-04-23T07:34:16.949Z,36.4
2018-04-23T07:35:17.205Z,35.4
2018-04-23T07:36:16.467Z,35.1
2018-04-23T07:37:16.726Z,35.9
2018-04-23T07:38:16.982Z,35.6
2018-04-23T07:39:17.328Z,35.7
2018-04-23T07:40:16.598Z,36.0
2018-04-23T07:41:16.654Z,35.2
2018-04-23T07:42:16.932Z,34.9
2018-04-23T07:43:17.197Z,34.5
2018-04-23T07:44:16.456Z,34.9
2018-04-23T07:45:16.723Z,35.0
2018-04-23T07:46:16.991Z,34.5
2018-04-23T07:47:17.269Z,34.5
2018-04-23T07:48:16.536Z,34.5
2018-04-23T07:49:16.797Z,34.9
2018-04-23T07:50:17.081Z,34.7
2018-04-23T07:51:17.100Z,34.6
2018-04-23T07:52:16.360Z,34.5
2018-04-23T07:53:16.618Z,34.8
2018-04-23T07:54:16.953Z,34.8
2018-04-23T07:55:17.229Z,34.9
2018-04-23T07:56:16.501Z,35.6
2018-04-23T07:57:16.767Z,35.4
2018-04-23T07:58:17.039Z,35.5
2018-04-23T07:59:16.306Z,35.4
2018-04-23T08:00:16.573Z,36.5
2018-04-23T08:01:16.601Z,35.7
2018-04-23T08:02:16.866Z,36.5
2018-04-23T08:03:17.135Z,36.4
2018-04-23T08:04:16.394Z,36.5
2018-04-23T08:05:16.654Z,36.3
2018-04-23T08:06:16.920Z,36.2
2018-04-23T08:07:17.176Z,36.5
2018-04-23T08:08:16.439Z,36.5
2018-04-23T08:09:16.716Z,36.6
2018-04-23T08:10:16.992Z,36.6
2018-04-23T08:11:17.029Z,36.5
2018-04-23T08:12:16.404Z,35.6
2018-04-23T08:13:16.678Z,35.6
2018-04-23T08:14:16.944Z,36.0
2018-04-23T08:15:17.208Z,34.8
2018-04-23T08:16:16.483Z,35.5
2018-04-23T08:17:16.752Z,35.0
2018-04-23T08:18:17.017Z,35.0
2018-04-23T08:19:16.273Z,34.8
2018-04-23T08:20:16.540Z,35.0
2018-04-23T08:21:16.578Z,34.9
2018-04-23T08:22:16.849Z,34.4
2018-04-23T08:23:17.108Z,34.1
2018-04-23T08:24:16.378Z,34.0
2018-04-23T08:25:16.646Z,33.8
2018-04-23T08:26:16.908Z,33.2
2018-04-23T08:27:17.174Z,34.1
2018-04-23T08:28:16.438Z,33.4
2018-04-23T08:29:16.698Z,32.6
2018-04-23T08:30:16.965Z,33.0
2018-04-23T08:31:17.007Z,33.6
2018-04-23T08:32:16.272Z,33.4
2018-04-23T08:33:16.535Z,33.2
2018-04-23T08:34:16.790Z,33.3
2018-04-23T08:35:17.055Z,33.0
2018-04-23T08:36:16.320Z,33.0
2018-04-23T08:37:16.583Z,32.7
2018-04-23T08:38:16.860Z,31.8
2018-04-23T08:39:17.114Z,31.6
2018-04-23T08:40:16.378Z,31.0
2018-04-23T08:41:16.423Z,30.9
2018-04-23T08:42:16.686Z,30.2
2018-04-23T08:43:16.956Z,30.7
2018-04-23T08:44:17.225Z,30.8
2018-04-23T08:45:16.481Z,29.1
2018-04-23T08:46:16.747Z,29.3
2018-04-23T08:47:17.009Z,28.8
2018-04-23T08:48:16.281Z,30.1
2018-04-23T08:49:16.540Z,30.2
2018-04-23T08:50:16.812Z,29.5
2018-04-23T08:51:16.845Z,28.1
2018-04-23T08:52:17.116Z,28.7
2018-04-23T08:53:16.393Z,29.1
2018-04-23T08:54:16.669Z,28.9
2018-04-23T08:55:16.939Z,28.9
2018-04-23T08:56:17.208Z,29.1
2018-04-23T08:57:16.466Z,29.2
2018-04-23T08:58:16.723Z,29.2
2018-04-23T08:59:16.983Z,29.6
2018-04-23T09:00:17.270Z,28.6
2018-04-23T09:01:16.310Z,27.9
2018-04-23T09:02:16.577Z,28.1
2018-04-23T09:03:16.838Z,29.2
2018-04-23T09:04:17.111Z,29.6
2018-04-23T09:05:16.374Z,31.0
2018-04-23T09:06:16.643Z,30.8
2018-04-23T09:07:16.910Z,30.6
2018-04-23T09:08:17.174Z,31.6
2018-04-23T09:09:16.439Z,32.5
2018-04-23T09:10:16.712Z,32.2
2018-04-23T09:11:16.765Z,32.5
2018-04-23T09:12:17.027Z,32.6
2018-04-23T09:13:16.293Z,33.5
2018-04-23T09:14:16.562Z,33.5
2018-04-23T09:15:16.842Z,34.1
2018-04-23T09:16:17.096Z,34.3
2018-04-23T09:17:16.361Z,34.8
2018-04-23T09:18:16.623Z,34.4
2018-04-23T09:19:16.890Z,34.3
2018-04-23T09:20:17.147Z,34.4
2018-04-23T09:21:17.192Z,34.8
2018-04-23T09:22:16.455Z,34.8
2018-04-23T09:23:16.713Z,34.0
2018-04-23T09:24:16.972Z,34.4
2018-04-23T09:25:17.237Z,34.9
2018-04-23T09:26:16.503Z,34.9
2018-04-23T09:27:16.761Z,35.0
2018-04-23T09:28:17.006Z,34.9
2018-04-23T09:29:16.606Z,34.8
2018-04-23T09:30:16.865Z,34.8
2018-04-23T09:31:16.937Z,34.9
2018-04-23T09:32:17.475Z,35.4
2018-04-23T09:33:16.731Z,35.2
2018-04-23T09:34:17.016Z,34.9
2018-04-23T09:35:16.280Z,34.7
2018-04-23T09:36:16.545Z,35.0
2018-04-23T09:37:16.828Z,35.4
2018-04-23T09:38:17.100Z,35.4
2018-04-23T09:39:16.370Z,36.0
2018-04-23T09:40:16.643Z,37.9
2018-04-23T09:41:16.688Z,37.9
2018-04-23T09:42:16.953Z,37.6
2018-04-23T09:43:17.234Z,38.5
2018-04-23T09:44:16.496Z,38.9
2018-04-23T09:45:16.770Z,38.6
2018-04-23T09:46:17.047Z,38.6
2018-04-23T09:47:16.308Z,38.6
2018-04-23T09:48:16.572Z,39.0
2018-04-23T09:49:16.833Z,39.5
2018-04-23T09:50:17.108Z,39.2
2018-04-23T09:51:17.137Z,39.2
2018-04-23T09:52:16.407Z,40.1
2018-04-23T09:53:16.672Z,40.3
2018-04-23T09:54:16.938Z,40.8
2018-04-23T09:55:17.198Z,41.9
2018-04-23T09:56:16.455Z,42.4
2018-04-23T09:57:16.715Z,43.2
2018-04-23T09:58:16.975Z,44.2
2018-04-23T09:59:17.233Z,43.8
2018-04-23T10:00:16.510Z,45.2
2018-04-23T10:01:16.559Z,45.4
2018-04-23T10:02:16.837Z,46.6
2018-04-23T10:03:17.190Z,47.8
2018-04-23T10:04:16.454Z,49.8
2018-04-23T10:05:16.711Z,52.1
2018-04-23T10:06:16.968Z,55.0
2018-04-23T10:07:17.224Z,55.5
2018-04-23T10:08:16.492Z,57.8
2018-04-23T10:09:16.758Z,59.1
2018-04-23T10:10:17.030Z,60.5
2018-04-23T10:11:17.062Z,62.0
2018-04-23T10:12:16.324Z,63.6
2018-04-23T10:13:16.597Z,65.1
2018-04-23T10:14:16.864Z,66.7
2018-04-23T10:15:17.148Z,68.2
2018-04-23T10:16:16.422Z,68.3
2018-04-23T10:17:16.684Z,69.2
2018-04-23T10:18:16.947Z,71.0
2018-04-23T10:19:17.209Z,72.8
2018-04-23T10:20:16.479Z,75.8
2018-04-23T10:21:16.515Z,78.1
2018-04-23T10:22:16.775Z,79.1
2018-04-23T10:23:17.047Z,80.2
2018-04-23T10:24:16.312Z,81.2
2018-04-23T10:25:16.576Z,81.7
2018-04-23T10:26:16.841Z,82.5
2018-04-23T10:27:17.103Z,82.4
2018-04-23T10:28:16.365Z,83.1
2018-04-23T10:29:16.624Z,83.4
2018-04-23T10:30:16.896Z,83.8
2018-04-23T10:31:16.919Z,84.7
2018-04-23T10:32:17.295Z,84.8
2018-04-23T10:33:16.556Z,85.2
2018-04-23T10:34:16.835Z,85.2
2018-04-23T10:35:17.106Z,86.4
2018-04-23T10:36:16.370Z,86.2
2018-04-23T10:37:16.633Z,86.3
2018-04-23T10:38:16.909Z,86.3
2018-04-23T10:39:17.178Z,86.2
2018-04-23T10:40:16.451Z,86.4
2018-04-23T10:41:16.483Z,86.5
2018-04-23T10:42:16.749Z,87.1
2018-04-23T10:43:17.006Z,87.4
2018-04-23T10:44:16.274Z,87.2
2018-04-23T10:45:16.557Z,86.8
2018-04-23T10:46:16.828Z,86.9
2018-04-23T10:47:17.095Z,87.2
2018-04-23T10:48:16.361Z,87.5
2018-04-23T10:49:16.620Z,87.2
2018-04-23T10:50:16.892Z,87.2
2018-04-23T10:51:16.922Z,87.6
2018-04-23T10:52:17.185Z,87.4
2018-04-23T10:53:16.448Z,87.0
2018-04-23T10:54:16.713Z,86.8
2018-04-23T10:55:16.982Z,87.4
2018-04-23T10:56:17.242Z,87.8
2018-04-23T10:57:16.507Z,87.3
2018-04-23T10:58:16.790Z,87.2
2018-04-23T10:59:17.055Z,87.2
2018-04-23T11:00:16.422Z,87.0
2018-04-23T11:01:16.365Z,87.0
2018-04-23T11:02:16.624Z,86.5
2018-04-23T11:03:16.897Z,86.3
2018-04-23T11:04:17.163Z,86.0
2018-04-23T11:05:16.434Z,86.1
2018-04-23T11:06:16.701Z,85.8
2018-04-23T11:07:16.965Z,85.7
2018-04-23T11:08:17.234Z,85.8
2018-04-23T11:09:16.495Z,85.8
2018-04-23T11:10:16.762Z,85.5
2018-04-23T11:11:16.787Z,84.9
2018-04-23T11:12:17.053Z,84.8
2018-04-23T11:13:16.319Z,84.8
2018-04-23T11:14:16.596Z,84.0
2018-04-23T11:15:16.866Z,84.3
2018-04-23T11:16:17.127Z,84.2
2018-04-23T11:17:16.389Z,83.9
2018-04-23T11:18:16.654Z,84.5
2018-04-23T11:19:16.911Z,83.8
2018-04-23T11:20:17.182Z,84.3
2018-04-23T11:21:17.224Z,84.6
2018-04-23T11:22:16.479Z,84.1
2018-04-23T11:23:16.747Z,83.8
2018-04-23T11:24:17.005Z,83.9
2018-04-23T11:25:16.269Z,83.6
2018-04-23T11:26:16.531Z,83.3
2018-04-23T11:27:16.798Z,82.5
2018-04-23T11:28:17.058Z,82.7
2018-04-23T11:29:16.318Z,82.3
2018-04-23T11:30:16.583Z,82.7
2018-04-23T11:31:16.648Z,82.2
2018-04-23T11:32:16.914Z,82.1
2018-04-23T11:33:17.174Z,82.0
2018-04-23T11:34:16.439Z,81.8
2018-04-23T11:35:16.700Z,81.8
2018-04-23T11:36:16.966Z,81.6
2018-04-23T11:37:17.233Z,82.3
2018-04-23T11:38:16.489Z,82.2
2018-04-23T11:39:16.742Z,82.0
2018-04-23T11:40:17.017Z,82.4
2018-04-23T11:41:17.058Z,82.1
2018-04-23T11:42:16.321Z,82.3
2018-04-23T11:43:16.585Z,82.3
2018-04-23T11:44:16.845Z,82.2
2018-04-23T11:45:17.157Z,81.5
2018-04-23T11:46:16.421Z,81.0
2018-04-23T11:47:16.681Z,81.2
2018-04-23T11:48:16.942Z,81.1
2018-04-23T11:49:17.202Z,81.1
2018-04-23T11:50:16.468Z,80.8
2018-04-23T11:51:16.509Z,80.6
2018-04-23T11:52:16.766Z,81.4
2018-04-23T11:53:17.029Z,80.7
2018-04-23T11:54:16.281Z,80.9
2018-04-23T11:55:16.547Z,81.0
2018-04-23T11:56:16.805Z,80.8
2018-04-23T11:57:17.068Z,80.0
2018-04-23T11:58:16.318Z,80.3
2018-04-23T11:59:16.688Z,80.6
2018-04-23T12:00:17.022Z,80.3
2018-04-23T12:01:17.079Z,80.2
2018-04-23T12:02:16.352Z,80.5
2018-04-23T12:03:16.619Z,80.0
2018-04-23T12:04:16.884Z,80.2
2018-04-23T12:05:17.181Z,79.7
2018-04-23T12:06:16.443Z,79.3
2018-04-23T12:07:16.704Z,79.7
2018-04-23T12:08:16.960Z,79.0
2018-04-23T12:09:17.225Z,78.8
2018-04-23T12:10:16.490Z,78.6
2018-04-23T12:11:16.556Z,78.8
2018-04-23T12:12:16.825Z,79.6
2018-04-23T12:13:17.088Z,79.8
2018-04-23T12:14:16.356Z,80.2
2018-04-23T12:15:16.642Z,80.8
2018-04-23T12:16:16.905Z,80.5
2018-04-23T12:17:17.174Z,80.5
2018-04-23T12:18:16.441Z,80.6
2018-04-23T12:19:16.705Z,80.8
2018-04-23T12:20:16.962Z,81.0
2018-04-23T12:21:17.016Z,80.5
2018-04-23T12:22:16.290Z,80.2
2018-04-23T12:23:16.566Z,79.7
2018-04-23T12:24:16.830Z,79.5
2018-04-23T12:25:17.094Z,78.2
2018-04-23T12:26:16.360Z,77.9
2018-04-23T12:27:16.622Z,77.8
2018-04-23T12:28:16.884Z,77.8
2018-04-23T12:29:17.153Z,77.2
2018-04-23T12:30:16.427Z,77.0
2018-04-23T12:31:16.553Z,75.8
2018-04-23T12:32:16.817Z,75.7
2018-04-23T12:33:17.077Z,75.0
2018-04-23T12:34:16.339Z,74.9
2018-04-23T12:35:16.609Z,75.0
2018-04-23T12:36:16.862Z,75.1
2018-04-23T12:37:17.136Z,73.8
2018-04-23T12:38:16.405Z,73.6
2018-04-23T12:39:16.665Z,74.0
2018-04-23T12:40:16.930Z,73.4
2018-04-23T12:41:16.968Z,73.9
2018-04-23T12:42:17.246Z,73.1
2018-04-23T12:43:16.515Z,72.8
2018-04-23T12:44:16.775Z,72.7
2018-04-23T12:45:17.036Z,71.9
2018-04-23T12:46:16.457Z,72.0
2018-04-23T12:47:16.800Z,72.2
2018-04-23T12:48:17.059Z,70.8
2018-04-23T12:49:16.321Z,70.3
2018-04-23T12:50:16.591Z,70.3
2018-04-23T12:51:16.637Z,70.4
2018-04-23T12:52:16.904Z,69.7
2018-04-23T12:53:17.172Z,68.2
2018-04-23T12:54:16.478Z,68.5
2018-04-23T12:55:16.752Z,67.8
2018-04-23T12:56:17.010Z,67.8
2018-04-23T12:57:16.273Z,67.1
2018-04-23T12:58:16.541Z,66.5
2018-04-23T12:59:16.814Z,65.3
2018-04-23T13:00:17.093Z,65.2
2018-04-23T13:01:17.128Z,64.5
2018-04-23T13:02:16.394Z,64.0
2018-04-23T13:03:16.660Z,64.1
2018-04-23T13:04:16.923Z,63.6
2018-04-23T13:05:17.187Z,63.5
2018-04-23T13:06:16.453Z,63.0
2018-04-23T13:07:16.709Z,63.2
2018-04-23T13:08:16.968Z,63.3
2018-04-23T13:09:17.234Z,63.5
2018-04-23T13:10:16.507Z,62.6
2018-04-23T13:11:16.566Z,62.7
2018-04-23T13:12:16.906Z,62.9
2018-04-23T13:13:17.193Z,62.4
2018-04-23T13:14:16.451Z,61.9
2018-04-23T13:15:16.723Z,61.7
2018-04-23T13:16:16.985Z,61.3
2018-04-23T13:17:17.278Z,60.8
2018-04-23T13:18:16.555Z,60.6